createdAt,value
2023-05-05T00:00:23.929Z,6.2
2023-05-05T00:01:32.245Z,6.2
2023-05-05T00:02:40.837Z,7.3
2023-05-05T00:03:49.211Z,7.3
2023-05-05T00:04:57.402Z,7.3
2023-05-05T00:06:05.939Z,7
2023-05-05T00:07:14.291Z,7
2023-05-05T00:08:22.631Z,7
2023-05-05T00:09:31.143Z,5.7
2023-05-05T00:10:39.508Z,5.7
2023-05-05T00:11:47.801Z,5.7
2023-05-05T00:12:56.358Z,5.9
2023-05-05T00:14:04.655Z,5.9
2023-05-05T00:15:12.972Z,5.9
2023-05-05T00:16:21.521Z,6.8
2023-05-05T00:17:29.848Z,6.8
2023-05-05T00:18:38.139Z,6.8
2023-05-05T00:19:46.685Z,5.2
2023-05-05T00:20:55.027Z,5.2
2023-05-05T00:22:03.324Z,5.2
2023-05-05T00:23:11.857Z,8.1
2023-05-05T00:24:20.168Z,8.1
2023-05-05T00:25:28.491Z,8.1
2023-05-05T00:26:37.058Z,6
2023-05-05T00:27:45.339Z,6
2023-05-05T00:28:53.645Z,6
2023-05-05T00:30:02.184Z,6.8
2023-05-05T00:31:10.544Z,6.8
2023-05-05T00:32:18.803Z,6.8
2023-05-05T00:33:27.343Z,5.7
2023-05-05T00:34:35.650Z,5.7
2023-05-05T00:35:43.960Z,5.7
2023-05-05T00:36:52.510Z,8.8
2023-05-05T00:38:00.824Z,8.8
2023-05-05T00:39:09.139Z,8.8
2023-05-05T00:40:17.681Z,6.2
2023-05-05T00:41:26.006Z,6.2
2023-05-05T00:42:34.327Z,6.2
2023-05-05T00:43:42.853Z,6.5
2023-05-05T00:44:51.157Z,6.5
2023-05-05T00:45:59.491Z,6.5
2023-05-05T00:47:08.010Z,6.4
2023-05-05T00:48:16.319Z,6.4
2023-05-05T00:49:24.660Z,6.4
2023-05-05T00:50:33.179Z,8.3
2023-05-05T00:51:41.503Z,8.3
2023-05-05T00:52:49.827Z,8.3
2023-05-05T00:53:58.364Z,6.8
2023-05-05T00:55:06.724Z,6.8
2023-05-05T00:56:17.020Z,6.8
2023-05-05T00:57:25.570Z,6.2
2023-05-05T00:58:33.915Z,6.2
2023-05-05T00:59:42.202Z,6.2
2023-05-05T01:00:50.732Z,6.3
2023-05-05T01:01:59.061Z,6.3
2023-05-05T01:03:07.398Z,6.3
2023-05-05T01:04:15.888Z,7.6
2023-05-05T01:05:24.208Z,7.6
2023-05-05T01:06:32.536Z,7.6
2023-05-05T01:07:41.060Z,6.9
2023-05-05T01:08:49.384Z,6.9
2023-05-05T01:10:07.524Z,6.9
2023-05-05T01:11:06.229Z,6
2023-05-05T01:12:14.551Z,6
2023-05-05T01:13:22.858Z,6
2023-05-05T01:14:31.414Z,5.5
2023-05-05T01:15:39.713Z,5.5
2023-05-05T01:16:48.025Z,5.5
2023-05-05T01:17:56.610Z,6.4
2023-05-05T01:19:04.899Z,6.4
2023-05-05T01:20:13.240Z,6.4
2023-05-05T01:21:21.772Z,8.5
2023-05-05T01:22:30.101Z,8.5
2023-05-05T01:23:38.432Z,8.5
2023-05-05T01:24:46.985Z,6.3
2023-05-05T01:25:55.325Z,6.3
2023-05-05T01:27:03.652Z,6.3
2023-05-05T01:28:12.179Z,5.9
2023-05-05T01:29:20.509Z,5.9
2023-05-05T01:30:28.853Z,5.9
2023-05-05T01:31:37.375Z,7.2
2023-05-05T01:32:45.799Z,7.2
2023-05-05T01:33:53.984Z,7.2
2023-05-05T01:35:02.517Z,6.9
2023-05-05T01:36:10.857Z,6.9
2023-05-05T01:37:19.189Z,6.9
2023-05-05T01:38:27.707Z,7.9
2023-05-05T01:39:36.039Z,7.9
2023-05-05T01:40:44.365Z,7.9
2023-05-05T01:41:52.918Z,6.2
2023-05-05T01:43:01.240Z,6.2
2023-05-05T01:44:09.558Z,6.2
2023-05-05T01:45:18.106Z,6.2
2023-05-05T01:46:26.453Z,6.2
2023-05-05T01:47:34.765Z,6.2
2023-05-05T01:48:43.287Z,6.9
2023-05-05T01:49:51.615Z,6.9
2023-05-05T01:50:59.932Z,6.9
2023-05-05T01:52:08.452Z,6
2023-05-05T01:53:16.786Z,6
2023-05-05T01:54:25.098Z,6
2023-05-05T01:55:33.649Z,5.9
2023-05-05T01:56:41.968Z,5.9
2023-05-05T01:57:50.288Z,5.9
2023-05-05T01:58:58.817Z,8.1
2023-05-05T02:00:07.337Z,8.1
2023-05-05T02:01:15.521Z,8.1
2023-05-05T02:02:24.090Z,8.7
2023-05-05T02:03:32.393Z,8.7
2023-05-05T02:04:40.673Z,8.7
2023-05-05T02:05:49.210Z,6.9
2023-05-05T02:06:57.524Z,6.9
2023-05-05T02:08:05.844Z,6.9
2023-05-05T02:09:14.380Z,5.6
2023-05-05T02:10:23.116Z,5.6
2023-05-05T02:11:31.495Z,5.6
2023-05-05T02:12:39.990Z,6.5
2023-05-05T02:13:48.358Z,6.5
2023-05-05T02:14:56.634Z,6.5
2023-05-05T02:16:05.188Z,5.9
2023-05-05T02:17:13.504Z,5.9
2023-05-05T02:18:21.868Z,5.9
2023-05-05T02:19:30.366Z,6.9
2023-05-05T02:20:38.731Z,6.9
2023-05-05T02:21:47.045Z,6.9
2023-05-05T02:22:55.576Z,6.7
2023-05-05T02:24:03.888Z,6.7
2023-05-05T02:25:12.231Z,6.7
2023-05-05T02:26:20.751Z,5.8
2023-05-05T02:27:29.063Z,5.8
2023-05-05T02:28:37.393Z,5.8
2023-05-05T02:29:45.923Z,6
2023-05-05T02:30:54.257Z,6
2023-05-05T02:32:02.581Z,6
2023-05-05T02:33:11.110Z,7.7
2023-05-05T02:34:19.458Z,7.7
2023-05-05T02:35:27.767Z,7.7
2023-05-05T02:36:36.298Z,10.8
2023-05-05T02:37:44.633Z,10.8
2023-05-05T02:38:52.951Z,10.8
2023-05-05T02:40:01.498Z,10.4
2023-05-05T02:41:09.827Z,10.4
2023-05-05T02:42:18.163Z,10.4
2023-05-05T02:43:26.727Z,6.4
2023-05-05T02:44:35.017Z,6.4
2023-05-05T02:45:43.374Z,6.4
2023-05-05T02:46:51.941Z,7.5
2023-05-05T02:48:00.290Z,7.5
2023-05-05T02:49:08.556Z,7.5
2023-05-05T02:50:17.130Z,6.5
2023-05-05T02:51:25.420Z,6.5
2023-05-05T02:52:33.754Z,6.5
2023-05-05T02:53:42.266Z,6.4
2023-05-05T02:54:50.611Z,6.4
2023-05-05T02:55:58.951Z,6.4
2023-05-05T02:57:07.466Z,6.9
2023-05-05T02:58:15.800Z,6.9
2023-05-05T02:59:24.141Z,6.9
2023-05-05T03:00:32.669Z,6.7
2023-05-05T03:01:41.014Z,6.7
2023-05-05T03:02:49.365Z,6.7
2023-05-05T03:03:57.874Z,6.7
2023-05-05T03:05:06.186Z,6.7
2023-05-05T03:06:14.526Z,6.7
2023-05-05T03:07:23.010Z,6.4
2023-05-05T03:08:31.335Z,6.4
2023-05-05T03:09:39.683Z,6.4
2023-05-05T03:10:48.206Z,8.9
2023-05-05T03:11:56.537Z,8.9
2023-05-05T03:13:04.874Z,8.9
2023-05-05T03:14:13.391Z,9
2023-05-05T03:15:21.714Z,9
2023-05-05T03:16:30.109Z,9
2023-05-05T03:17:38.635Z,9.1
2023-05-05T03:18:46.943Z,9.1
2023-05-05T03:19:55.268Z,9.1
2023-05-05T03:21:03.813Z,8.6
2023-05-05T03:22:12.157Z,8.6
2023-05-05T03:23:20.449Z,8.6
2023-05-05T03:24:28.980Z,7.5
2023-05-05T03:25:37.315Z,7.5
2023-05-05T03:26:45.628Z,7.5
2023-05-05T03:27:54.141Z,8.2
2023-05-05T03:29:02.461Z,8.2
2023-05-05T03:30:10.878Z,8.2
2023-05-05T03:31:19.367Z,6.5
2023-05-05T03:32:27.685Z,6.5
2023-05-05T03:33:35.949Z,6.5
2023-05-05T03:34:44.467Z,7.3
2023-05-05T03:35:52.804Z,7.3
2023-05-05T03:37:01.124Z,7.3
2023-05-05T03:38:09.677Z,9.2
2023-05-05T03:39:17.969Z,9.2
2023-05-05T03:40:32.843Z,9.2
2023-05-05T03:41:34.898Z,7.2
2023-05-05T03:42:43.219Z,7.2
2023-05-05T03:43:51.548Z,7.2
2023-05-05T03:45:00.144Z,8.7
2023-05-05T03:46:08.460Z,8.7
2023-05-05T03:47:16.722Z,8.7
2023-05-05T03:48:25.273Z,9
2023-05-05T03:49:33.593Z,9
2023-05-05T03:50:41.919Z,9
2023-05-05T03:51:50.466Z,7.1
2023-05-05T03:52:58.775Z,7.1
2023-05-05T03:54:07.105Z,7.1
2023-05-05T03:55:15.625Z,8.6
2023-05-05T03:56:23.948Z,8.6
2023-05-05T03:57:32.257Z,8.6
2023-05-05T03:58:40.772Z,7.5
2023-05-05T03:59:49.090Z,7.5
2023-05-05T04:00:57.389Z,7.5
2023-05-05T04:02:05.955Z,7.6
2023-05-05T04:03:14.272Z,7.6
2023-05-05T04:04:22.656Z,7.6
2023-05-05T04:05:31.082Z,8.2
2023-05-05T04:06:39.426Z,8.2
2023-05-05T04:07:48.658Z,8.2
2023-05-05T04:08:57.204Z,7.3
2023-05-05T04:10:05.630Z,7.3
2023-05-05T04:11:13.835Z,7.3
2023-05-05T04:12:22.369Z,7.8
2023-05-05T04:13:30.698Z,7.8
2023-05-05T04:14:39.038Z,7.8
2023-05-05T04:15:47.590Z,7.1
2023-05-05T04:16:55.872Z,7.1
2023-05-05T04:18:04.183Z,7.1
2023-05-05T04:19:12.700Z,7
2023-05-05T04:20:21.022Z,7
2023-05-05T04:21:29.337Z,7
2023-05-05T04:22:37.884Z,9.1
2023-05-05T04:23:46.199Z,9.1
2023-05-05T04:24:54.524Z,9.1
2023-05-05T04:26:03.093Z,6.6
2023-05-05T04:27:11.393Z,6.6
2023-05-05T04:28:21.720Z,6.6
2023-05-05T04:29:28.248Z,7.1
2023-05-05T04:30:36.599Z,7.1
2023-05-05T04:31:44.932Z,7.1
2023-05-05T04:32:53.571Z,7.3
2023-05-05T04:34:01.817Z,7.3
2023-05-05T04:35:10.155Z,7.3
2023-05-05T04:36:18.707Z,9.4
2023-05-05T04:37:27.081Z,9.4
2023-05-05T04:38:35.435Z,9.4
2023-05-05T04:39:43.963Z,9.1
2023-05-05T04:40:52.283Z,9.1
2023-05-05T04:42:00.661Z,9.1
2023-05-05T04:43:10.512Z,8.4
2023-05-05T04:44:18.836Z,8.4
2023-05-05T04:45:27.197Z,8.4
2023-05-05T04:46:35.906Z,7.7
2023-05-05T04:47:44.263Z,7.7
2023-05-05T04:48:52.562Z,7.7
2023-05-05T04:50:01.098Z,8.1
2023-05-05T04:51:09.421Z,8.1
2023-05-05T04:52:17.761Z,8.1
2023-05-05T04:53:26.355Z,9.7
2023-05-05T04:54:34.653Z,9.7
2023-05-05T04:55:42.959Z,9.7
2023-05-05T04:56:51.581Z,9.1
2023-05-05T04:57:59.930Z,9.1
2023-05-05T04:59:08.214Z,9.1
2023-05-05T05:00:16.770Z,8.6
2023-05-05T05:01:25.102Z,8.6
2023-05-05T05:02:33.490Z,8.6
2023-05-05T05:03:41.987Z,7.1
2023-05-05T05:04:50.279Z,7.1
2023-05-05T05:05:58.602Z,7.1
2023-05-05T05:07:07.120Z,7.5
2023-05-05T05:08:15.441Z,7.5
2023-05-05T05:09:23.769Z,7.5
2023-05-05T05:10:32.291Z,6.1
2023-05-05T05:11:40.609Z,6.1
2023-05-05T05:12:48.973Z,6.1
2023-05-05T05:13:57.494Z,7.7
2023-05-05T05:15:05.821Z,7.7
2023-05-05T05:16:14.147Z,7.7
2023-05-05T05:17:22.700Z,8.2
2023-05-05T05:18:31.003Z,8.2
2023-05-05T05:19:39.353Z,8.2
2023-05-05T05:20:47.861Z,14.4
2023-05-05T05:21:56.184Z,14.4
2023-05-05T05:23:04.570Z,14.4
2023-05-05T05:24:13.026Z,8.2
2023-05-05T05:25:21.336Z,8.2
2023-05-05T05:26:29.640Z,8.2
2023-05-05T05:27:38.163Z,7.7
2023-05-05T05:28:46.477Z,7.7
2023-05-05T05:29:54.804Z,7.7
2023-05-05T05:31:03.304Z,7.7
2023-05-05T05:32:11.653Z,7.7
2023-05-05T05:33:19.919Z,7.7
2023-05-05T05:34:28.454Z,19.4
2023-05-05T05:35:37.301Z,19.4
2023-05-05T05:36:45.604Z,19.4
2023-05-05T05:37:54.123Z,13.8
2023-05-05T05:39:02.455Z,13.8
2023-05-05T05:40:10.792Z,13.8
2023-05-05T05:41:19.323Z,14.1
2023-05-05T05:42:27.632Z,14.1
2023-05-05T05:43:35.943Z,14.1
2023-05-05T05:44:44.469Z,11.6
2023-05-05T05:45:52.877Z,11.6
2023-05-05T05:47:01.098Z,11.6
2023-05-05T05:48:09.689Z,9.5
2023-05-05T05:49:17.913Z,9.5
2023-05-05T05:50:26.209Z,9.5
2023-05-05T05:51:34.735Z,8.7
2023-05-05T05:52:43.049Z,8.7
2023-05-05T05:53:51.453Z,8.7
2023-05-05T05:54:59.984Z,7.6
2023-05-05T05:56:08.305Z,7.6
2023-05-05T05:57:16.610Z,7.6
2023-05-05T05:58:25.127Z,9.1
2023-05-05T05:59:33.462Z,9.1
2023-05-05T06:00:41.757Z,9.1
2023-05-05T06:01:50.369Z,7.2
2023-05-05T06:02:58.670Z,7.2
2023-05-05T06:04:06.931Z,7.2
2023-05-05T06:05:15.436Z,7.3
2023-05-05T06:06:23.764Z,7.3
2023-05-05T06:07:32.081Z,7.3
2023-05-05T06:08:40.617Z,10.1
2023-05-05T06:09:48.928Z,10.1
2023-05-05T06:10:57.215Z,10.1
2023-05-05T06:12:05.723Z,9.8
2023-05-05T06:13:14.130Z,9.8
2023-05-05T06:14:22.372Z,9.8
2023-05-05T06:15:30.888Z,10.4
2023-05-05T06:16:39.205Z,10.4
2023-05-05T06:17:47.563Z,10.4
2023-05-05T06:18:56.053Z,6.8
2023-05-05T06:20:04.360Z,6.8
2023-05-05T06:21:12.668Z,6.8
2023-05-05T06:22:21.178Z,6.1
2023-05-05T06:23:29.486Z,6.1
2023-05-05T06:24:37.803Z,6.1
2023-05-05T06:25:46.319Z,9.9
2023-05-05T06:26:54.624Z,9.9
2023-05-05T06:28:02.935Z,9.9
2023-05-05T06:29:12.366Z,9.6
2023-05-05T06:30:19.771Z,9.6
2023-05-05T06:31:28.093Z,9.6
2023-05-05T06:32:36.641Z,8.6
2023-05-05T06:33:44.943Z,8.6
2023-05-05T06:34:53.229Z,8.6
2023-05-05T06:36:01.736Z,7.4
2023-05-05T06:37:10.053Z,7.4
2023-05-05T06:38:18.380Z,7.4
2023-05-05T06:39:26.987Z,11.8
2023-05-05T06:40:35.205Z,11.8
2023-05-05T06:41:43.549Z,11.8
2023-05-05T06:42:52.084Z,15
2023-05-05T06:44:00.397Z,15
2023-05-05T06:45:08.715Z,15
2023-05-05T06:46:17.265Z,15.4
2023-05-05T06:47:25.549Z,15.4
2023-05-05T06:48:33.845Z,15.4
2023-05-05T06:49:42.465Z,16.5
2023-05-05T06:50:50.686Z,16.5
2023-05-05T06:51:58.996Z,16.5
2023-05-05T06:53:07.506Z,11.3
2023-05-05T06:54:15.831Z,11.3
2023-05-05T06:55:24.149Z,11.3
2023-05-05T06:56:32.669Z,11.9
2023-05-05T06:57:40.990Z,11.9
2023-05-05T06:58:49.307Z,11.9
2023-05-05T06:59:57.816Z,9.4
2023-05-05T07:01:06.145Z,9.4
2023-05-05T07:02:14.800Z,9.4
2023-05-05T07:03:25.687Z,9.9
2023-05-05T07:04:33.994Z,9.9
2023-05-05T07:05:42.470Z,9.9
2023-05-05T07:06:50.823Z,7.3
2023-05-05T07:07:59.140Z,7.3
2023-05-05T07:09:07.464Z,7.3
2023-05-05T07:10:15.976Z,9.2
2023-05-05T07:11:24.288Z,9.2
2023-05-05T07:12:32.624Z,9.2
2023-05-05T07:13:41.156Z,8
2023-05-05T07:14:49.468Z,8
2023-05-05T07:15:57.759Z,8
2023-05-05T07:17:06.264Z,8.6
2023-05-05T07:18:14.602Z,8.6
2023-05-05T07:19:22.904Z,8.6
2023-05-05T07:20:31.408Z,6.2
2023-05-05T07:21:39.811Z,6.2
2023-05-05T07:22:48.031Z,6.2
2023-05-05T07:23:56.791Z,6.4
2023-05-05T07:25:04.886Z,6.4
2023-05-05T07:26:13.193Z,6.4
2023-05-05T07:27:21.747Z,5.6
2023-05-05T07:28:30.041Z,5.6
2023-05-05T07:29:38.360Z,5.6
2023-05-05T07:30:46.889Z,4.3
2023-05-05T07:31:55.203Z,4.3
2023-05-05T07:33:03.508Z,4.3
2023-05-05T07:34:12.013Z,10.2
2023-05-05T07:35:20.323Z,10.2
2023-05-05T07:36:28.653Z,10.2
2023-05-05T07:37:37.312Z,6.5
2023-05-05T07:38:45.499Z,6.5
2023-05-05T07:39:53.799Z,6.5
2023-05-05T07:41:02.340Z,5.8
2023-05-05T07:42:10.640Z,5.8
2023-05-05T07:43:18.983Z,5.8
2023-05-05T07:44:27.525Z,4.9
2023-05-05T07:45:35.841Z,4.9
2023-05-05T07:46:44.188Z,4.9
2023-05-05T07:47:52.824Z,6.4
2023-05-05T07:49:01.037Z,6.4
2023-05-05T07:50:09.735Z,6.4
2023-05-05T07:51:17.930Z,5.1
2023-05-05T07:52:37.652Z,5.1
2023-05-05T07:53:34.779Z,5.1
2023-05-05T07:54:43.152Z,4.9
2023-05-05T07:55:51.455Z,4.9
2023-05-05T07:56:59.802Z,4.9
2023-05-05T07:58:08.337Z,5.1
2023-05-05T07:59:16.675Z,5.1
2023-05-05T08:00:25.023Z,5.1
2023-05-05T08:01:33.591Z,5.1
2023-05-05T08:02:41.946Z,5.1
2023-05-05T08:03:50.286Z,5.1
2023-05-05T08:04:58.764Z,5.6
2023-05-05T08:06:07.096Z,5.6
2023-05-05T08:07:15.439Z,5.6
2023-05-05T08:08:23.986Z,5.2
2023-05-05T08:09:32.447Z,5.2
2023-05-05T08:10:40.671Z,5.2
2023-05-05T08:11:49.200Z,6.2
2023-05-05T08:12:57.539Z,6.2
2023-05-05T08:14:05.862Z,6.2
2023-05-05T08:15:14.369Z,6
2023-05-05T08:16:22.717Z,6
2023-05-05T08:17:31.060Z,6
2023-05-05T08:18:39.579Z,8.9
2023-05-05T08:19:47.903Z,8.9
2023-05-05T08:20:56.212Z,8.9
2023-05-05T08:22:04.753Z,5.6
2023-05-05T08:23:13.112Z,5.6
2023-05-05T08:24:21.441Z,5.6
2023-05-05T08:25:30.066Z,6.3
2023-05-05T08:26:38.288Z,6.3
2023-05-05T08:27:46.641Z,6.3
2023-05-05T08:28:55.198Z,6
2023-05-05T08:30:03.521Z,6
2023-05-05T08:31:11.884Z,6
2023-05-05T08:32:20.380Z,5
2023-05-05T08:33:28.731Z,5
2023-05-05T08:34:43.734Z,5
2023-05-05T08:35:52.262Z,6.5
2023-05-05T08:37:00.593Z,6.5
2023-05-05T08:38:08.932Z,6.5
2023-05-05T08:39:17.455Z,5.9
2023-05-05T08:40:25.777Z,5.9
2023-05-05T08:41:34.232Z,5.9
2023-05-05T08:42:42.641Z,5.2
2023-05-05T08:43:50.966Z,5.2
2023-05-05T08:44:59.330Z,5.2
2023-05-05T08:46:07.844Z,6.7
2023-05-05T08:47:16.143Z,6.7
2023-05-05T08:48:24.476Z,6.7
2023-05-05T08:49:33.007Z,7.1
2023-05-05T08:50:41.342Z,7.1
2023-05-05T08:51:49.680Z,7.1
2023-05-05T08:52:58.307Z,6.1
2023-05-05T08:54:06.545Z,6.1
2023-05-05T08:55:14.887Z,6.1
2023-05-05T08:56:23.417Z,6
2023-05-05T08:57:31.914Z,6
2023-05-05T08:58:40.086Z,6
2023-05-05T08:59:48.593Z,5.6
2023-05-05T09:00:56.950Z,5.6
2023-05-05T09:02:05.332Z,5.6
2023-05-05T09:03:13.854Z,4.8
2023-05-05T09:04:22.169Z,4.8
2023-05-05T09:05:30.485Z,4.8
2023-05-05T09:06:39.032Z,6.7
2023-05-05T09:07:47.467Z,6.7
2023-05-05T09:08:57.587Z,6.7
2023-05-05T09:10:04.210Z,5.1
2023-05-05T09:11:12.510Z,5.1
2023-05-05T09:12:20.849Z,5.1
2023-05-05T09:13:29.566Z,9
2023-05-05T09:14:37.725Z,9
2023-05-05T09:15:46.038Z,9
2023-05-05T09:16:54.640Z,7
2023-05-05T09:18:02.974Z,7
2023-05-05T09:19:11.259Z,7
2023-05-05T09:20:19.821Z,6.8
2023-05-05T09:21:28.143Z,6.8
2023-05-05T09:22:36.471Z,6.8
2023-05-05T09:23:45.018Z,7.2
2023-05-05T09:24:53.345Z,7.2
2023-05-05T09:26:01.678Z,7.2
2023-05-05T09:27:10.200Z,7
2023-05-05T09:28:18.534Z,7
2023-05-05T09:29:26.957Z,7
2023-05-05T09:30:35.445Z,6.3
2023-05-05T09:31:43.765Z,6.3
2023-05-05T09:32:52.109Z,6.3
2023-05-05T09:34:00.637Z,7
2023-05-05T09:35:09.086Z,7
2023-05-05T09:36:17.308Z,7
2023-05-05T09:37:25.865Z,6.9
2023-05-05T09:38:34.202Z,6.9
2023-05-05T09:39:42.554Z,6.9
2023-05-05T09:40:51.076Z,9
2023-05-05T09:41:59.430Z,9
2023-05-05T09:43:07.768Z,9
2023-05-05T09:44:16.291Z,7
2023-05-05T09:45:24.746Z,7
2023-05-05T09:46:33.011Z,7
2023-05-05T09:47:41.528Z,7.7
2023-05-05T09:48:49.846Z,7.7
2023-05-05T09:49:58.168Z,7.7
2023-05-05T09:51:06.709Z,8
2023-05-05T09:52:15.057Z,8
2023-05-05T09:53:23.380Z,8
2023-05-05T09:54:31.914Z,5.5
2023-05-05T09:55:40.255Z,5.5
2023-05-05T09:56:48.571Z,5.5
2023-05-05T09:57:57.224Z,7.7
2023-05-05T09:59:05.520Z,7.7
2023-05-05T10:00:13.870Z,7.7
2023-05-05T10:01:22.585Z,10.1
2023-05-05T10:02:30.795Z,10.1
2023-05-05T10:03:39.106Z,10.1
2023-05-05T10:04:47.669Z,6.9
2023-05-05T10:05:55.999Z,6.9
2023-05-05T10:07:04.351Z,6.9
2023-05-05T10:08:12.907Z,6.6
2023-05-05T10:09:21.248Z,6.6
2023-05-05T10:10:29.594Z,6.6
2023-05-05T10:11:38.132Z,9.5
2023-05-05T10:12:46.583Z,9.5
2023-05-05T10:13:54.849Z,9.5
2023-05-05T10:15:03.386Z,6.3
2023-05-05T10:16:11.739Z,6.3
2023-05-05T10:17:20.187Z,6.3
2023-05-05T10:18:28.689Z,6
2023-05-05T10:19:36.950Z,6
2023-05-05T10:20:45.303Z,6
2023-05-05T10:21:53.876Z,6.6
2023-05-05T10:23:02.295Z,6.6
2023-05-05T10:24:10.611Z,6.6
2023-05-05T10:25:19.142Z,7.9
2023-05-05T10:26:27.486Z,7.9
2023-05-05T10:27:35.822Z,7.9
2023-05-05T10:28:44.400Z,7
2023-05-05T10:29:52.731Z,7
2023-05-05T10:31:01.038Z,7
2023-05-05T10:32:27.500Z,6.8
2023-05-05T10:34:28.419Z,6.8
2023-05-05T10:35:36.932Z,7.5
2023-05-05T10:36:45.290Z,7.5
2023-05-05T10:37:53.636Z,7.5
2023-05-05T10:39:02.207Z,10
2023-05-05T10:40:10.726Z,10
2023-05-05T10:41:18.886Z,10
2023-05-05T10:42:27.481Z,7
2023-05-05T10:43:35.804Z,7
2023-05-05T10:44:44.151Z,7
2023-05-05T10:45:52.775Z,7.3
2023-05-05T10:47:01.026Z,7.3
2023-05-05T10:48:09.476Z,7.3
2023-05-05T10:49:18.019Z,8.5
2023-05-05T10:50:26.250Z,8.5
2023-05-05T10:51:39.801Z,8.5
2023-05-05T10:52:43.105Z,6.8
2023-05-05T10:53:51.498Z,6.8
2023-05-05T10:54:59.780Z,6.8
2023-05-05T10:56:08.317Z,8.4
2023-05-05T10:57:16.652Z,8.4
2023-05-05T10:58:24.984Z,8.4
2023-05-05T10:59:33.539Z,9.5
2023-05-05T11:00:41.897Z,9.5
2023-05-05T11:03:34.200Z,8
2023-05-05T11:04:42.593Z,8
2023-05-05T11:05:50.824Z,8
2023-05-05T11:06:59.358Z,6.1
2023-05-05T11:08:07.706Z,6.1
2023-05-05T11:09:16.050Z,6.1
2023-05-05T11:10:24.609Z,6.4
2023-05-05T11:11:32.925Z,6.4
2023-05-05T11:12:41.321Z,6.4
2023-05-05T11:13:49.807Z,6
2023-05-05T11:14:58.124Z,6
2023-05-05T11:16:06.507Z,6
2023-05-05T11:17:15.022Z,6.7
2023-05-05T11:18:23.352Z,6.7
2023-05-05T11:19:31.678Z,6.7
2023-05-05T11:20:40.373Z,6.3
2023-05-05T11:21:48.585Z,6.3
2023-05-05T11:22:56.939Z,6.3
2023-05-05T11:24:05.498Z,5.3
2023-05-05T11:25:13.812Z,5.3
2023-05-05T11:26:22.185Z,5.3
2023-05-05T11:27:30.734Z,6.8
2023-05-05T11:28:39.074Z,6.8
2023-05-05T11:29:47.408Z,6.8
2023-05-05T11:30:56.325Z,5.7
2023-05-05T11:32:04.284Z,5.7
2023-05-05T11:33:12.641Z,5.7
2023-05-05T11:34:21.162Z,5.8
2023-05-05T11:35:29.532Z,5.8
2023-05-05T11:36:38.070Z,5.8
2023-05-05T11:37:46.414Z,7.3
2023-05-05T11:38:54.772Z,7.3
2023-05-05T11:40:03.094Z,7.3
2023-05-05T11:41:11.620Z,5.3
2023-05-05T11:42:19.944Z,5.3
2023-05-05T11:43:28.271Z,5.3
2023-05-05T11:44:36.811Z,4.8
2023-05-05T11:45:45.161Z,4.8
2023-05-05T11:46:53.925Z,4.8
2023-05-05T11:48:02.049Z,7.3
2023-05-05T11:49:10.377Z,7.3
2023-05-05T11:50:18.735Z,7.3
2023-05-05T11:51:27.293Z,5.3
2023-05-05T11:52:35.819Z,5.3
2023-05-05T11:53:43.924Z,5.3
2023-05-05T11:54:52.472Z,5.1
2023-05-05T11:56:00.812Z,5.1
2023-05-05T11:57:09.227Z,5.1
2023-05-05T11:58:17.706Z,8.2
2023-05-05T11:59:26.048Z,8.2
2023-05-05T12:00:34.396Z,8.2
2023-05-05T12:01:42.937Z,5.6
2023-05-05T12:02:51.367Z,5.6
2023-05-05T12:03:59.785Z,5.6
2023-05-05T12:05:08.213Z,7.7
2023-05-05T12:06:16.556Z,7.7
2023-05-05T12:07:24.885Z,7.7
2023-05-05T12:08:33.526Z,6
2023-05-05T12:09:41.765Z,6
2023-05-05T12:10:50.143Z,6
2023-05-05T12:11:58.674Z,4.5
2023-05-05T12:13:07.113Z,4.5
2023-05-05T12:14:15.423Z,4.5
2023-05-05T12:15:24.004Z,6.7
2023-05-05T12:16:32.354Z,6.7
2023-05-05T12:17:40.734Z,6.7
2023-05-05T12:18:49.249Z,5.4
2023-05-05T12:19:57.583Z,5.4
2023-05-05T12:21:05.908Z,5.4
2023-05-05T12:22:14.456Z,5.5
2023-05-05T12:23:22.803Z,5.5
2023-05-05T12:24:31.394Z,5.5
2023-05-05T12:25:39.705Z,6.6
2023-05-05T12:26:48.086Z,6.6
2023-05-05T12:27:56.465Z,6.6
2023-05-05T12:29:04.982Z,6.1
2023-05-05T12:30:13.353Z,6.1
2023-05-05T12:31:21.714Z,6.1
2023-05-05T12:32:30.262Z,5.4
2023-05-05T12:33:38.577Z,5.4
2023-05-05T12:34:46.894Z,5.4
2023-05-05T12:35:55.490Z,6.3
2023-05-05T12:37:03.810Z,6.3
2023-05-05T12:38:12.170Z,6.3
2023-05-05T12:39:20.730Z,6.1
2023-05-05T12:40:29.102Z,6.1
2023-05-05T12:41:37.402Z,6.1
2023-05-05T12:42:46.380Z,6.3
2023-05-05T12:43:54.381Z,6.3
2023-05-05T12:45:02.711Z,6.3
2023-05-05T12:46:11.353Z,6
2023-05-05T12:47:19.702Z,6
2023-05-05T12:48:28.049Z,6
2023-05-05T12:49:36.584Z,4.7
2023-05-05T12:50:44.983Z,4.7
2023-05-05T12:51:53.344Z,4.7
2023-05-05T12:53:01.877Z,5
2023-05-05T12:54:10.241Z,5
2023-05-05T12:55:18.582Z,5
2023-05-05T12:56:27.217Z,6
2023-05-05T12:57:35.507Z,6
2023-05-05T12:58:43.832Z,6
2023-05-05T12:59:52.358Z,6.1
2023-05-05T13:01:00.752Z,6.1
2023-05-05T13:02:09.147Z,6.1
2023-05-05T13:03:17.729Z,4.9
2023-05-05T13:04:26.030Z,4.9
2023-05-05T13:05:34.461Z,4.9
2023-05-05T13:06:43.032Z,6.1
2023-05-05T13:07:51.389Z,6.1
2023-05-05T13:08:59.774Z,6.1
2023-05-05T13:10:08.367Z,7
2023-05-05T13:11:16.670Z,7
2023-05-05T13:12:25.225Z,7
2023-05-05T13:13:33.619Z,5.5
2023-05-05T13:14:41.945Z,5.5
2023-05-05T13:15:50.330Z,5.5
2023-05-05T13:16:58.902Z,7.5
2023-05-05T13:18:07.324Z,7.5
2023-05-05T13:19:15.641Z,7.5
2023-05-05T13:20:24.253Z,6.5
2023-05-05T13:21:32.625Z,6.5
2023-05-05T13:22:40.948Z,6.5
2023-05-05T13:23:49.531Z,5.8
2023-05-05T13:24:57.900Z,5.8
2023-05-05T13:26:06.220Z,5.8
2023-05-05T13:27:14.768Z,5.9
2023-05-05T13:28:23.230Z,5.9
2023-05-05T13:29:31.855Z,5.9
2023-05-05T13:30:40.082Z,6.3
2023-05-05T13:31:48.736Z,6.3
2023-05-05T13:32:57.029Z,6.3
2023-05-05T13:34:05.584Z,5.2
2023-05-05T13:35:16.051Z,5.2
2023-05-05T13:36:22.366Z,5.2
2023-05-05T13:37:30.976Z,6
2023-05-05T13:38:39.327Z,6
2023-05-05T13:39:47.684Z,6
2023-05-05T13:40:56.260Z,8.1
2023-05-05T13:42:04.652Z,8.1
2023-05-05T13:43:13.011Z,8.1
2023-05-05T13:44:21.772Z,6.1
2023-05-05T13:45:29.976Z,6.1
2023-05-05T13:46:38.428Z,6.1
2023-05-05T13:47:46.904Z,6.6
2023-05-05T13:48:56.755Z,6.6
2023-05-05T13:50:03.607Z,6.6
2023-05-05T13:51:12.183Z,5.2
2023-05-05T13:52:20.578Z,5.2
2023-05-05T13:53:28.946Z,5.2
2023-05-05T13:54:37.499Z,5.9
2023-05-05T13:55:45.836Z,5.9
2023-05-05T13:56:54.196Z,5.9
2023-05-05T13:58:02.746Z,5.6
2023-05-05T13:59:11.076Z,5.6
2023-05-05T14:00:19.520Z,5.6
2023-05-05T14:01:28.157Z,7.6
2023-05-05T14:02:36.425Z,7.6
2023-05-05T14:03:44.798Z,7.6
2023-05-05T14:04:53.317Z,7.1
2023-05-05T14:06:01.646Z,7.1
2023-05-05T14:07:09.984Z,7.1
2023-05-05T14:08:18.577Z,6.7
2023-05-05T14:09:26.925Z,6.7
2023-05-05T14:10:35.257Z,6.7
2023-05-05T14:11:43.839Z,9.4
2023-05-05T14:12:52.216Z,9.4
2023-05-05T14:14:00.520Z,9.4
2023-05-05T14:15:09.260Z,7.2
2023-05-05T14:16:17.678Z,7.2
2023-05-05T14:17:25.821Z,7.2
2023-05-05T14:18:34.365Z,7.4
2023-05-05T14:19:42.767Z,7.4
2023-05-05T14:20:51.089Z,7.4
2023-05-05T14:21:59.664Z,5.8
2023-05-05T14:23:07.976Z,5.8
2023-05-05T14:24:16.306Z,5.8
2023-05-05T14:25:24.856Z,5.7
2023-05-05T14:26:33.204Z,5.7
2023-05-05T14:27:41.537Z,5.7
2023-05-05T14:28:50.253Z,7.6
2023-05-05T14:29:58.525Z,7.6
2023-05-05T14:31:06.901Z,7.6
2023-05-05T14:32:15.611Z,4.9
2023-05-05T14:33:23.752Z,4.9
2023-05-05T14:34:32.117Z,4.9
2023-05-05T14:35:40.632Z,4.7
2023-05-05T14:36:49.011Z,4.7
2023-05-05T14:37:57.387Z,4.7
2023-05-05T14:39:05.996Z,5.8
2023-05-05T14:40:14.352Z,5.8
2023-05-05T14:41:22.767Z,5.8
2023-05-05T14:42:31.312Z,6.8
2023-05-05T14:43:39.651Z,6.8
2023-05-05T14:44:48.028Z,6.8
2023-05-05T14:45:56.608Z,5.6
2023-05-05T14:47:04.915Z,5.6
2023-05-05T14:48:13.359Z,5.6
2023-05-05T14:49:21.796Z,5.3
2023-05-05T14:50:30.157Z,5.3
2023-05-05T14:51:38.503Z,5.3
2023-05-05T14:52:47.034Z,5.1
2023-05-05T14:53:55.399Z,5.1
2023-05-05T14:55:03.725Z,5.1
2023-05-05T14:56:12.279Z,5.2
2023-05-05T14:57:20.603Z,5.2
2023-05-05T14:58:29.565Z,5.2
2023-05-05T14:59:38.075Z,5
2023-05-05T15:00:46.408Z,5
2023-05-05T15:01:54.790Z,5
2023-05-05T15:03:03.335Z,4.4
2023-05-05T15:04:11.730Z,4.4
2023-05-05T15:05:19.986Z,4.4
2023-05-05T15:06:28.521Z,5.8
2023-05-05T15:40:57.820Z,0
2023-05-05T15:42:06.060Z,0
2023-05-05T15:43:14.380Z,0
2023-05-05T15:44:22.960Z,11.1
2023-05-05T15:45:31.286Z,11.1
2023-05-05T15:46:39.632Z,11.1
2023-05-05T15:47:48.203Z,15.5
2023-05-05T15:48:56.484Z,15.5
2023-05-05T15:50:04.832Z,15.5
2023-05-05T15:51:13.362Z,7.1
2023-05-05T15:52:21.767Z,7.1
2023-05-05T15:53:30.110Z,7.1
2023-05-05T15:54:38.672Z,4.3
2023-05-05T15:55:47.043Z,4.3
2023-05-05T15:56:55.387Z,4.3
2023-05-05T15:58:03.912Z,6.8
2023-05-05T15:59:12.235Z,6.8
2023-05-05T16:00:20.580Z,6.8
2023-05-05T16:01:29.136Z,6.9
2023-05-05T16:02:37.458Z,6.9
2023-05-05T16:03:45.771Z,6.9
2023-05-05T16:04:54.299Z,5
2023-05-05T16:06:02.654Z,5
2023-05-05T16:07:10.977Z,5
2023-05-05T16:08:19.513Z,5.6
2023-05-05T16:09:27.860Z,5.6
2023-05-05T16:10:36.220Z,5.6
2023-05-05T16:11:44.775Z,7.1
2023-05-05T16:12:53.209Z,7.1
2023-05-05T16:14:01.446Z,7.1
2023-05-05T16:15:10.273Z,6.5
2023-05-05T16:16:18.373Z,6.5
2023-05-05T16:17:26.692Z,6.5
2023-05-05T16:18:35.233Z,2.3
2023-05-05T16:19:43.579Z,2.3
2023-05-05T16:20:51.912Z,2.3
2023-05-05T16:22:00.445Z,3.6
2023-05-05T16:23:08.802Z,3.6
2023-05-05T16:24:17.144Z,3.6